createdAt,value
2022-09-21T00:00:26.182Z,19.03
2022-09-21T00:03:11.927Z,19.03
2022-09-21T00:06:12.311Z,19.03
2022-09-21T00:08:57.743Z,19.02
2022-09-21T00:11:42.949Z,19.03
2022-09-21T00:14:28.633Z,19.03
2022-09-21T00:17:13.950Z,19.02
2022-09-21T00:20:01.448Z,19.02
2022-09-21T00:22:47.849Z,19.03
2022-09-21T00:25:33.321Z,19.01
2022-09-21T00:28:18.504Z,19.01
2022-09-21T00:31:13.711Z,19.01
2022-09-21T00:34:00.346Z,19.01
2022-09-21T00:36:46.176Z,19.01
2022-09-21T00:39:31.687Z,19.00
2022-09-21T00:42:21.612Z,18.99
2022-09-21T00:45:07.412Z,19.00
2022-09-21T00:47:53.089Z,19.00
2022-09-21T00:50:45.763Z,19.01
2022-09-21T00:53:32.162Z,18.99
2022-09-21T00:56:17.766Z,19.00
2022-09-21T00:59:03.944Z,18.99
2022-09-21T01:01:49.862Z,18.98
2022-09-21T01:04:36.258Z,18.98
2022-09-21T01:07:27.620Z,18.98
2022-09-21T01:10:17.462Z,18.99
2022-09-21T01:13:27.693Z,18.99
2022-09-21T01:16:27.042Z,18.98
2022-09-21T01:19:30.932Z,18.99
2022-09-21T01:22:53.906Z,18.98
2022-09-21T01:26:11.579Z,18.97
2022-09-21T01:29:16.917Z,18.97
2022-09-21T01:32:08.428Z,18.96
2022-09-21T01:34:54.468Z,18.98
2022-09-21T01:37:48.021Z,18.97
2022-09-21T01:40:43.944Z,18.98
2022-09-21T01:43:46.890Z,18.97
2022-09-21T01:46:33.993Z,18.98
2022-09-21T01:49:36.334Z,18.98
2022-09-21T01:52:39.836Z,18.98
2022-09-21T01:55:39.434Z,18.97
2022-09-21T01:58:33.650Z,18.98
2022-09-21T02:01:23.135Z,18.97
2022-09-21T02:04:11.400Z,18.98
2022-09-21T02:06:56.897Z,18.98
2022-09-21T02:09:42.234Z,18.97
2022-09-21T02:12:27.391Z,18.97
2022-09-21T02:15:13.077Z,18.97
2022-09-21T02:18:14.204Z,18.98
2022-09-21T02:21:03.903Z,18.96
2022-09-21T02:24:22.982Z,18.98
2022-09-21T02:27:52.875Z,18.97
2022-09-21T02:30:41.008Z,18.96
2022-09-21T02:33:32.410Z,18.96
2022-09-21T02:36:31.941Z,18.96
2022-09-21T02:39:39.036Z,18.96
2022-09-21T02:42:31.512Z,18.96
2022-09-21T02:45:22.627Z,18.96
2022-09-21T02:48:18.666Z,18.95
2022-09-21T02:51:10.746Z,18.95
2022-09-21T02:53:57.017Z,18.95
2022-09-21T02:56:42.610Z,18.95
2022-09-21T02:59:28.603Z,18.98
2022-09-21T03:02:14.589Z,18.96
2022-09-21T03:05:00.075Z,18.98
2022-09-21T03:07:45.280Z,18.95
2022-09-21T03:10:30.379Z,18.94
2022-09-21T03:13:15.804Z,18.94
2022-09-21T03:16:07.152Z,18.95
2022-09-21T03:18:52.805Z,18.96
2022-09-21T03:21:43.780Z,18.95
2022-09-21T03:24:45.455Z,18.94
2022-09-21T03:27:30.925Z,18.93
2022-09-21T03:30:16.216Z,18.92
2022-09-21T03:33:01.444Z,18.91
2022-09-21T03:35:50.562Z,18.91
2022-09-21T03:38:36.552Z,18.93
2022-09-21T03:41:22.524Z,18.96
2022-09-21T03:44:07.724Z,18.97
2022-09-21T03:46:53.759Z,18.97
2022-09-21T03:49:38.986Z,19.01
2022-09-21T03:52:24.261Z,19.05
2022-09-21T03:55:10.689Z,19.06
2022-09-21T03:57:56.687Z,19.06
2022-09-21T04:00:42.342Z,19.07
2022-09-21T04:03:27.881Z,19.07
2022-09-21T04:06:13.825Z,19.06
2022-09-21T04:09:00.425Z,19.07
2022-09-21T04:11:46.208Z,19.02
2022-09-21T04:14:31.548Z,19.04
2022-09-21T04:17:17.130Z,19.08
2022-09-21T04:20:02.553Z,19.13
2022-09-21T04:22:48.142Z,19.18
2022-09-21T04:25:33.689Z,19.21
2022-09-21T04:28:19.571Z,19.26
2022-09-21T04:31:05.037Z,19.31
2022-09-21T04:33:55.107Z,19.33
2022-09-21T04:36:40.560Z,19.38
2022-09-21T04:39:26.263Z,19.41
2022-09-21T04:42:11.413Z,19.43
2022-09-21T04:44:56.976Z,19.46
2022-09-21T04:47:42.206Z,19.50
2022-09-21T04:50:28.013Z,19.52
2022-09-21T04:53:21.497Z,19.57
2022-09-21T04:56:08.251Z,19.57
2022-09-21T04:58:53.518Z,19.56
2022-09-21T05:01:39.428Z,19.59
2022-09-21T05:04:24.615Z,19.59
2022-09-21T05:07:09.898Z,19.60
2022-09-21T05:10:04.183Z,19.56
2022-09-21T05:12:50.063Z,19.55
2022-09-21T05:15:38.003Z,19.51
2022-09-21T05:18:23.368Z,19.49
2022-09-21T05:21:11.398Z,19.48
2022-09-21T05:23:57.475Z,19.46
2022-09-21T05:26:42.932Z,19.44
2022-09-21T05:29:28.498Z,19.43
2022-09-21T05:32:17.008Z,19.42
2022-09-21T05:35:28.658Z,19.41
2022-09-21T05:38:18.960Z,19.40
2022-09-21T05:41:05.072Z,19.40
2022-09-21T05:43:50.605Z,19.38
2022-09-21T05:46:52.724Z,19.38
2022-09-21T05:49:49.074Z,19.37
2022-09-21T05:53:15.527Z,19.35
2022-09-21T05:56:08.453Z,19.35
2022-09-21T05:59:22.073Z,19.35
2022-09-21T06:02:23.162Z,19.31
2022-09-21T06:05:13.413Z,19.31
2022-09-21T06:07:58.871Z,19.30
2022-09-21T06:10:44.233Z,19.29
2022-09-21T06:13:29.459Z,19.28
2022-09-21T06:16:14.683Z,19.29
2022-09-21T06:18:59.917Z,19.27
2022-09-21T06:21:45.516Z,19.28
2022-09-21T06:24:30.927Z,19.25
2022-09-21T06:27:16.086Z,19.26
2022-09-21T06:30:01.382Z,19.25
2022-09-21T06:32:46.538Z,19.24
2022-09-21T06:35:33.809Z,19.25
2022-09-21T06:38:19.191Z,19.23
2022-09-21T06:41:05.395Z,19.23
2022-09-21T06:43:55.689Z,19.23
2022-09-21T06:46:41.232Z,19.23
2022-09-21T06:49:28.762Z,19.23
2022-09-21T06:52:14.255Z,19.21
2022-09-21T06:54:59.389Z,19.21
2022-09-21T06:57:44.976Z,19.19
2022-09-21T07:00:31.612Z,19.19
2022-09-21T07:03:16.858Z,19.18
2022-09-21T07:06:02.707Z,19.18
2022-09-21T07:11:54.562Z,19.18
2022-09-21T07:14:39.872Z,19.17
2022-09-21T07:17:25.214Z,19.17
2022-09-21T07:20:11.039Z,19.16
2022-09-21T07:22:57.685Z,19.14
2022-09-21T07:25:44.097Z,19.15
2022-09-21T07:28:30.177Z,19.15
2022-09-21T07:31:16.789Z,19.14
2022-09-21T07:34:02.222Z,19.14
2022-09-21T07:36:47.474Z,19.14
2022-09-21T07:39:32.761Z,19.12
2022-09-21T07:42:20.093Z,19.11
2022-09-21T07:45:06.128Z,19.11
2022-09-21T07:47:54.229Z,19.11
2022-09-21T07:50:39.827Z,19.11
2022-09-21T07:53:25.138Z,19.11
2022-09-21T07:56:16.726Z,19.10
2022-09-21T07:59:07.833Z,19.10
2022-09-21T08:01:53.230Z,19.10
2022-09-21T08:04:38.722Z,19.11
2022-09-21T08:07:23.978Z,19.11
2022-09-21T08:10:09.981Z,19.11
2022-09-21T08:12:56.247Z,19.11
2022-09-21T08:15:49.737Z,19.11
2022-09-21T08:18:40.354Z,19.11
2022-09-21T08:21:25.647Z,19.11
2022-09-21T08:24:11.189Z,19.10
2022-09-21T08:26:57.831Z,19.10
2022-09-21T08:29:43.811Z,19.10
2022-09-21T08:32:50.073Z,19.10
2022-09-21T08:35:37.010Z,19.10
2022-09-21T08:38:22.810Z,19.09
2022-09-21T08:41:19.478Z,19.09
2022-09-21T08:44:21.543Z,19.08
2022-09-21T08:47:19.395Z,19.07
2022-09-21T08:50:12.463Z,19.08
2022-09-21T08:53:13.559Z,19.08
2022-09-21T08:55:59.641Z,19.07
2022-09-21T08:58:44.863Z,19.08
2022-09-21T09:02:14.830Z,19.07
2022-09-21T09:05:23.209Z,19.07
2022-09-21T09:08:39.439Z,19.07
2022-09-21T09:11:32.183Z,19.08
2022-09-21T09:14:42.668Z,19.08
2022-09-21T09:17:53.509Z,19.08
2022-09-21T09:21:03.753Z,19.07
2022-09-21T09:24:04.486Z,19.08
2022-09-21T09:27:02.778Z,19.07
2022-09-21T09:30:02.907Z,19.08
2022-09-21T09:32:58.582Z,19.07
2022-09-21T09:35:51.006Z,19.09
2022-09-21T09:38:40.738Z,19.10
2022-09-21T09:41:55.239Z,19.10
2022-09-21T09:44:55.641Z,19.10
2022-09-21T09:48:02.632Z,19.11
2022-09-21T09:50:47.821Z,19.11
2022-09-21T09:53:33.988Z,19.12
2022-09-21T09:56:19.619Z,19.12
2022-09-21T09:59:10.726Z,19.13
2022-09-21T10:02:01.108Z,19.12
2022-09-21T10:05:06.220Z,19.13
2022-09-21T10:07:53.081Z,19.11
2022-09-21T10:10:41.521Z,19.12
2022-09-21T10:13:29.237Z,19.13
2022-09-21T10:16:20.469Z,19.09
2022-09-21T10:19:05.918Z,19.11
2022-09-21T10:22:02.072Z,19.13
2022-09-21T10:24:53.148Z,19.13
2022-09-21T10:27:45.105Z,19.13
2022-09-21T10:30:30.557Z,19.14
2022-09-21T10:33:22.200Z,19.11
2022-09-21T10:36:25.554Z,19.13
2022-09-21T10:39:21.929Z,19.13
2022-09-21T10:42:16.369Z,19.14
2022-09-21T10:45:16.516Z,19.16
2022-09-21T10:48:16.620Z,19.14
2022-09-21T10:51:03.432Z,19.15
2022-09-21T10:53:53.761Z,19.15
2022-09-21T10:56:54.646Z,19.14
2022-09-21T10:59:40.305Z,19.16
2022-09-21T11:02:31.573Z,19.17
2022-09-21T11:05:28.533Z,19.17
2022-09-21T11:08:38.352Z,19.16
2022-09-21T11:11:37.711Z,19.16
2022-09-21T11:14:45.376Z,19.18
2022-09-21T11:18:14.592Z,19.18
2022-09-21T11:21:09.501Z,19.19
2022-09-21T11:24:19.724Z,19.19
2022-09-21T11:27:27.330Z,19.18
2022-09-21T11:30:15.409Z,19.18
2022-09-21T11:33:15.474Z,19.17
2022-09-21T11:36:24.073Z,19.17
2022-09-21T11:39:24.763Z,19.18
2022-09-21T11:42:16.587Z,19.17
2022-09-21T11:45:07.834Z,19.17
2022-09-21T11:48:32.281Z,19.18
2022-09-21T11:51:24.148Z,19.18
2022-09-21T11:54:38.019Z,19.21
2022-09-21T11:57:29.616Z,19.22
2022-09-21T12:00:20.345Z,19.25
2022-09-21T12:03:14.607Z,19.25
2022-09-21T12:06:38.105Z,19.26
2022-09-21T12:09:49.510Z,19.28
2022-09-21T12:13:00.826Z,19.27
2022-09-21T12:16:03.001Z,19.25
2022-09-21T12:19:12.341Z,19.26
2022-09-21T12:22:09.792Z,19.25
2022-09-21T12:25:04.457Z,19.23
2022-09-21T12:27:57.076Z,19.24
2022-09-21T12:30:47.739Z,19.23
2022-09-21T12:33:43.262Z,19.24
2022-09-21T12:36:39.584Z,19.26
2022-09-21T12:39:32.778Z,19.26
2022-09-21T12:42:30.633Z,19.27
2022-09-21T12:45:25.828Z,19.26
2022-09-21T12:48:17.107Z,19.27
2022-09-21T12:51:25.762Z,19.27
2022-09-21T12:54:26.075Z,19.26
2022-09-21T12:58:04.800Z,19.24
2022-09-21T13:01:20.759Z,19.26
2022-09-21T13:04:31.426Z,19.25
2022-09-21T13:07:33.404Z,19.23
2022-09-21T13:10:28.612Z,19.24
2022-09-21T13:13:26.359Z,19.25
2022-09-21T13:16:35.442Z,19.26
2022-09-21T13:19:26.786Z,19.26
2022-09-21T13:22:25.818Z,19.28
2022-09-21T13:25:24.703Z,19.30
2022-09-21T13:28:13.576Z,19.32
2022-09-21T13:31:39.799Z,19.35
2022-09-21T13:34:28.565Z,19.35
2022-09-21T13:37:20.345Z,19.35
2022-09-21T13:40:05.686Z,19.36
2022-09-21T13:42:50.852Z,19.40
2022-09-21T13:45:36.045Z,19.39
2022-09-21T13:48:29.524Z,19.42
2022-09-21T13:51:16.173Z,19.47
2022-09-21T13:54:03.954Z,19.49
2022-09-21T13:57:00.585Z,19.51
2022-09-21T13:59:49.306Z,19.53
2022-09-21T14:03:04.548Z,19.57
2022-09-21T14:05:54.610Z,19.57
2022-09-21T14:08:50.459Z,19.61
2022-09-21T14:11:39.085Z,19.61
2022-09-21T14:14:30.686Z,19.63
2022-09-21T14:17:37.633Z,19.65
2022-09-21T14:20:32.692Z,19.66
2022-09-21T14:23:23.162Z,19.68
2022-09-21T14:26:35.045Z,19.71
2022-09-21T14:29:48.562Z,19.71
2022-09-21T14:32:41.431Z,19.75
2022-09-21T14:35:33.761Z,19.76
2022-09-21T14:38:25.249Z,19.81
2022-09-21T14:41:19.971Z,19.80
2022-09-21T14:44:06.263Z,19.80
2022-09-21T14:47:00.706Z,19.83
2022-09-21T14:50:23.948Z,19.86
2022-09-21T14:53:32.734Z,19.86
2022-09-21T14:56:30.415Z,19.88
2022-09-21T14:59:30.121Z,19.88
2022-09-21T15:02:25.358Z,19.89
2022-09-21T15:05:29.467Z,19.89
2022-09-21T15:09:09.216Z,19.91
2022-09-21T15:12:09.889Z,19.92
2022-09-21T15:15:23.215Z,19.93
2022-09-21T15:18:21.218Z,19.93
2022-09-21T15:21:21.980Z,19.96
2022-09-21T15:24:35.608Z,20.00
2022-09-21T15:27:23.084Z,20.03
2022-09-21T15:30:20.790Z,20.04
2022-09-21T15:33:06.418Z,20.07
2022-09-21T15:35:54.582Z,20.05
2022-09-21T15:38:40.280Z,20.05
2022-09-21T15:41:46.014Z,20.06
2022-09-21T15:44:37.509Z,20.09
2022-09-21T15:47:26.269Z,20.09
2022-09-21T15:50:14.162Z,20.09
2022-09-21T15:53:05.774Z,20.09
2022-09-21T15:55:52.343Z,20.11
2022-09-21T15:58:40.514Z,20.12
2022-09-21T16:01:25.976Z,20.13
2022-09-21T16:04:16.236Z,20.13
2022-09-21T16:07:31.517Z,20.14
2022-09-21T16:10:40.281Z,20.15
2022-09-21T16:13:44.490Z,20.17
2022-09-21T16:16:29.809Z,20.17
2022-09-21T16:19:16.425Z,20.17
2022-09-21T16:22:05.449Z,20.20
2022-09-21T16:24:57.481Z,20.17
2022-09-21T16:28:01.243Z,20.18
2022-09-21T16:30:51.810Z,20.20
2022-09-21T16:33:41.316Z,20.19
2022-09-21T16:36:32.429Z,20.20
2022-09-21T16:39:18.953Z,20.21
2022-09-21T16:42:05.516Z,20.23
2022-09-21T16:44:51.302Z,20.24
2022-09-21T16:47:37.774Z,20.25
2022-09-21T16:50:24.649Z,20.26
2022-09-21T16:53:10.465Z,20.24
2022-09-21T16:55:56.315Z,20.28
2022-09-21T16:58:45.180Z,20.28
2022-09-21T17:01:30.733Z,20.27
2022-09-21T17:04:17.053Z,20.27
2022-09-21T17:07:05.398Z,20.27
2022-09-21T17:09:51.300Z,20.26
2022-09-21T17:12:38.259Z,20.26
2022-09-21T17:15:25.304Z,20.26
2022-09-21T17:18:12.848Z,20.26
2022-09-21T17:20:58.752Z,20.24
2022-09-21T17:23:44.056Z,20.26
2022-09-21T17:26:29.512Z,20.28
2022-09-21T17:29:28.038Z,20.27
2022-09-21T17:32:14.716Z,20.28
2022-09-21T17:35:28.804Z,20.27
2022-09-21T17:38:14.804Z,20.29
2022-09-21T17:41:04.696Z,20.28
2022-09-21T17:43:58.635Z,20.28
2022-09-21T17:47:09.506Z,20.27
2022-09-21T17:49:59.090Z,20.24
2022-09-21T17:53:03.919Z,20.22
2022-09-21T17:55:58.157Z,20.21
2022-09-21T17:59:03.441Z,20.18
2022-09-21T18:01:49.023Z,20.16
2022-09-21T18:04:35.388Z,20.13
2022-09-21T18:07:21.341Z,20.11
2022-09-21T18:10:07.551Z,20.10
2022-09-21T18:13:15.822Z,20.10
2022-09-21T18:16:19.937Z,20.09
2022-09-21T18:19:05.347Z,20.09
2022-09-21T18:21:57.143Z,20.05
2022-09-21T18:24:43.911Z,20.04
2022-09-21T18:27:29.634Z,20.03
2022-09-21T18:30:16.834Z,20.02
2022-09-21T18:33:16.027Z,20.02
2022-09-21T18:36:24.688Z,20.01
2022-09-21T18:39:28.119Z,20.00
2022-09-21T18:42:50.951Z,19.96
2022-09-21T18:45:44.198Z,19.92
2022-09-21T18:49:01.798Z,19.93
2022-09-21T18:51:58.926Z,19.94
2022-09-21T18:54:45.082Z,19.89
2022-09-21T18:57:32.523Z,19.88
2022-09-21T19:00:18.626Z,19.87
2022-09-21T19:03:23.644Z,19.86
2022-09-21T19:06:27.420Z,19.86
2022-09-21T19:09:22.063Z,19.77
2022-09-21T19:12:32.051Z,19.76
2022-09-21T19:16:00.383Z,19.78
2022-09-21T19:18:59.947Z,19.77
2022-09-21T19:21:58.492Z,19.77
2022-09-21T19:24:57.169Z,19.76
2022-09-21T19:28:28.982Z,19.77
2022-09-21T19:31:20.379Z,19.72
2022-09-21T19:34:23.907Z,19.72
2022-09-21T19:37:09.446Z,19.68
2022-09-21T19:39:55.348Z,19.67
2022-09-21T19:43:20.808Z,19.68
2022-09-21T19:46:09.179Z,19.66
2022-09-21T19:49:01.505Z,19.67
2022-09-21T19:51:49.111Z,19.65
2022-09-21T19:54:53.908Z,19.64
2022-09-21T19:57:58.526Z,19.62
2022-09-21T20:00:45.533Z,19.65
2022-09-21T20:03:39.455Z,19.62
2022-09-21T20:06:38.856Z,19.63
2022-09-21T20:09:29.685Z,19.65
2022-09-21T20:12:49.180Z,19.68
2022-09-21T20:15:41.597Z,19.71
2022-09-21T20:18:40.729Z,19.71
2022-09-21T20:21:38.378Z,19.72
2022-09-21T20:24:42.197Z,19.74
2022-09-21T20:27:27.780Z,19.76
2022-09-21T20:30:15.506Z,19.80
2022-09-21T20:33:07.366Z,19.82
2022-09-21T20:35:55.429Z,19.87
2022-09-21T20:38:44.219Z,19.88
2022-09-21T20:41:30.183Z,19.89
2022-09-21T20:44:15.837Z,19.92
2022-09-21T20:47:01.090Z,19.92
2022-09-21T20:49:47.687Z,19.92
2022-09-21T20:52:34.710Z,19.96
2022-09-21T20:55:20.494Z,20.01
2022-09-21T20:58:05.781Z,19.97
2022-09-21T21:00:56.414Z,19.93
2022-09-21T21:03:43.985Z,19.91
2022-09-21T21:06:34.072Z,19.89
2022-09-21T21:09:19.741Z,19.85
2022-09-21T21:12:05.195Z,19.84
2022-09-21T21:14:51.264Z,19.85
2022-09-21T21:17:36.770Z,19.83
2022-09-21T21:20:22.296Z,19.82
2022-09-21T21:23:08.321Z,19.81
2022-09-21T21:25:54.035Z,19.81
2022-09-21T21:28:39.245Z,19.79
2022-09-21T21:31:25.123Z,19.78
2022-09-21T21:34:10.879Z,19.79
2022-09-21T21:36:56.587Z,19.76
2022-09-21T21:39:42.608Z,19.75
2022-09-21T21:42:29.523Z,19.73
2022-09-21T21:45:15.260Z,19.72
2022-09-21T21:48:02.404Z,19.71
2022-09-21T21:50:47.881Z,19.69
2022-09-21T21:53:35.545Z,19.67
2022-09-21T21:56:22.741Z,19.66
2022-09-21T21:59:07.950Z,19.65
2022-09-21T22:01:54.613Z,19.63
2022-09-21T22:04:40.409Z,19.63
2022-09-21T22:07:25.790Z,19.63
2022-09-21T22:10:11.053Z,19.63
2022-09-21T22:12:57.370Z,19.60
2022-09-21T22:15:42.728Z,19.60
2022-09-21T22:18:27.971Z,19.61
2022-09-21T22:21:16.087Z,19.60
2022-09-21T22:24:05.125Z,19.59
2022-09-21T22:26:50.684Z,19.58
2022-09-21T22:29:35.979Z,19.60
2022-09-21T22:32:21.221Z,19.59
2022-09-21T22:35:06.733Z,19.59
2022-09-21T22:37:52.800Z,19.57
2022-09-21T22:40:38.119Z,19.59
2022-09-21T22:43:23.683Z,19.58
2022-09-21T22:46:09.294Z,19.60
2022-09-21T22:48:55.224Z,19.59
2022-09-21T22:51:40.573Z,19.61
2022-09-21T22:54:27.684Z,19.60
2022-09-21T22:57:13.130Z,19.60
2022-09-21T22:59:58.446Z,19.57
2022-09-21T23:02:44.866Z,19.57
2022-09-21T23:05:30.088Z,19.56
2022-09-21T23:08:15.722Z,19.56
2022-09-21T23:11:37.784Z,19.58
2022-09-21T23:14:23.541Z,19.55
2022-09-21T23:17:08.942Z,19.55
2022-09-21T23:19:54.139Z,19.55
2022-09-21T23:22:39.534Z,19.55
2022-09-21T23:25:25.189Z,19.55
2022-09-21T23:28:10.500Z,19.55
2022-09-21T23:30:57.773Z,19.53
2022-09-21T23:33:46.156Z,19.52
2022-09-21T23:36:32.253Z,19.52
2022-09-21T23:39:17.476Z,19.51
2022-09-21T23:42:02.771Z,19.50
2022-09-21T23:44:48.084Z,19.50
2022-09-21T23:47:33.469Z,19.49
2022-09-21T23:50:18.754Z,19.48
2022-09-21T23:53:04.042Z,19.48
2022-09-21T23:55:49.642Z,19.49
2022-09-21T23:58:35.602Z,19.45
